Mangonia Park, Florida
Current Conditions -  °F | °C
As of 3:53 PM on Thursday 18 Dec 2014 (Local Time) from KPBI Reporting Station
Scattered Clouds Scattered Clouds  
Wind Chill: 74°   Ceiling: Unl
Heat Index: 74°   Visibility: 10mi
Dew Point: 56°   Wind: 6mph
Humidity: 53%   Direction: 300°WNW
Pressure: 30.06"   Gusts: NA
Location:  26.7596°N, 80.0917°W
Report Text: KPBI 182053Z 30005KT 10SM FEW035 SCT250 23/13 A3006 RMK AO2 SLP179 T02330133 56017
Loading
Personal Weather Stations






























Interactive Weather Map New forecast layout! Learn more

10-Day Weather Forecast

Advertisements
Track Severe Weather on mobile